Time;durP1;ratioP1;P1;durP2;ratioP2;P2;SDS_P1;SDS_P2;PMS_P1;PMS_P2;Temp;Humidity;BMP_temperature;BMP_pressure;BME280_temperature;BME280_humidity;BME280_pressure;Samples;Min_cycle;Max_cycle;Signal;HPM_P1;HPM_P2
2022/07/17 00:01:01;;;;;;;2.47;1.90;;;;;;;18.84;41.10;96555.66;10338738;28;96909;-74
2022/07/17 00:06:06;;;;;;;3.00;2.20;;;;;;;18.74;41.49;96548.06;10340573;28;98466;-74
2022/07/17 00:11:09;;;;;;;;;;;;;;;18.61;41.23;96545.28;10341016;28;99476;-74
2022/07/17 00:16:12;;;;;;;3.05;2.10;;;;;;;18.44;41.67;96550.03;10343265;28;98434;-74
2022/07/17 00:21:16;;;;;;;2.67;2.00;;;;;;;18.27;41.73;96544.16;10339961;28;98289;-74
2022/07/17 00:26:19;;;;;;;3.20;1.73;;;;;;;18.18;42.95;96543.47;10349234;28;98127;-74
2022/07/17 00:31:22;;;;;;;7.28;2.00;;;;;;;18.13;42.34;96541.41;10352646;28;96961;-74
2022/07/17 00:36:26;;;;;;;4.25;2.03;;;;;;;18.06;43.98;96543.13;10340957;28;100093;-73
2022/07/17 00:41:29;;;;;;;3.15;2.20;;;;;;;17.93;43.91;96541.19;10349266;28;98557;-74
2022/07/17 00:46:32;;;;;;;3.50;1.92;;;;;;;17.77;44.06;96544.03;10345602;28;97266;-74
2022/07/17 00:51:37;;;;;;;3.17;1.83;;;;;;;17.69;44.67;96546.78;10342148;28;97722;-73
2022/07/17 00:56:41;;;;;;;3.90;2.00;;;;;;;17.57;44.58;96560.44;10341142;28;99737;-74
2022/07/17 01:01:44;;;;;;;2.30;2.10;;;;;;;17.51;44.86;96563.00;10339537;28;98486;-74
2022/07/17 01:06:48;;;;;;;4.85;2.03;;;;;;;17.43;46.42;96558.63;10341620;28;101499;-74
2022/07/17 01:11:51;;;;;;;2.55;2.10;;;;;;;17.41;45.33;96555.34;10349498;28;97243;-73
2022/07/17 01:16:55;;;;;;;3.15;2.05;;;;;;;17.34;46.38;96560.53;10347497;28;98623;-74
2022/07/17 01:21:59;;;;;;;2.60;2.00;;;;;;;17.27;46.61;96564.91;10341167;28;100039;-73
2022/07/17 01:27:02;;;;;;;2.83;1.90;;;;;;;17.19;47.58;96562.34;10339481;28;98136;-74
2022/07/17 01:32:06;;;;;;;3.72;2.13;;;;;;;17.42;45.89;96567.53;10345255;28;98549;-74
2022/07/17 01:37:10;;;;;;;2.03;1.80;;;;;;;17.63;45.42;96564.19;10348524;28;98587;-74
2022/07/17 01:42:13;;;;;;;3.10;2.03;;;;;;;17.85;44.39;96564.25;10344044;28;97058;-73
2022/07/17 01:47:16;;;;;;;3.90;1.90;;;;;;;18.01;43.46;96558.78;10348661;28;96906;-73
2022/07/17 01:52:21;;;;;;;6.63;2.10;;;;;;;18.08;43.38;96564.09;10341104;28;97034;-73
2022/07/17 01:57:24;;;;;;;3.15;1.90;;;;;;;18.01;44.08;96566.69;10349153;28;96994;-74
2022/07/17 02:02:27;;;;;;;2.50;1.70;;;;;;;17.88;44.57;96569.19;10345080;28;99055;-74
2022/07/17 02:07:33;;;;;;;4.13;1.80;;;;;;;17.82;44.41;96567.22;10349566;28;97430;-74
2022/07/17 02:12:35;;;;;;;3.70;1.90;;;;;;;17.78;43.79;96574.72;10346999;28;97886;-74
2022/07/17 02:17:39;;;;;;;2.28;1.80;;;;;;;17.60;43.43;96575.13;10350572;28;99919;-73
2022/07/17 02:22:44;;;;;;;2.75;1.90;;;;;;;17.43;44.17;96574.47;10346957;28;96985;-74
2022/07/17 02:27:47;;;;;;;3.85;2.03;;;;;;;17.34;44.38;96572.94;10330171;28;99514;-74
2022/07/17 02:32:51;;;;;;;2.58;1.60;;;;;;;17.18;44.46;96576.56;10341635;28;97654;-73
2022/07/17 02:37:55;;;;;;;2.80;1.63;;;;;;;17.07;45.08;96575.19;10335349;28;96937;-73
2022/07/17 02:42:58;;;;;;;3.35;1.98;;;;;;;16.94;46.09;96575.00;10332031;28;96935;-73
2022/07/17 02:48:01;;;;;;;2.22;1.60;;;;;;;16.84;45.68;96577.88;10345978;28;96967;-74
2022/07/17 02:53:05;;;;;;;3.40;1.80;;;;;;;16.73;45.51;96575.66;10340934;28;98754;-73
2022/07/17 02:58:08;;;;;;;3.15;1.98;;;;;;;16.58;46.08;96573.75;10342905;28;96935;-73
2022/07/17 03:03:11;;;;;;;3.42;1.90;;;;;;;16.51;46.68;96575.47;10344672;28;97965;-73
2022/07/17 03:08:15;;;;;;;3.03;1.83;;;;;;;16.41;46.70;96566.97;10354255;28;98523;-73
2022/07/17 03:13:18;;;;;;;3.55;1.85;;;;;;;16.36;46.39;96577.22;10342395;28;96941;-73
2022/07/17 03:18:21;;;;;;;4.35;1.88;;;;;;;16.40;46.58;96570.63;10356170;28;99194;-73
2022/07/17 03:23:25;;;;;;;3.92;2.10;;;;;;;16.35;46.02;96572.97;10339047;28;97165;-73
2022/07/17 03:28:28;;;;;;;3.60;1.80;;;;;;;16.28;47.31;96579.94;10344668;28;98562;-73
2022/07/17 03:33:31;;;;;;;3.17;1.77;;;;;;;16.16;47.21;96572.44;10339123;28;97298;-73
2022/07/17 03:38:36;;;;;;;3.75;1.90;;;;;;;16.09;48.54;96581.22;10340530;28;97214;-73
2022/07/17 03:43:39;;;;;;;4.72;1.60;;;;;;;15.93;48.88;96575.03;10338938;28;99844;-73
2022/07/17 03:48:41;;;;;;;4.22;1.90;;;;;;;15.91;48.39;96568.28;10344229;28;97278;-74
2022/07/17 03:53:46;;;;;;;3.55;1.95;;;;;;;15.75;49.72;96577.91;10343555;28;101042;-73
2022/07/17 03:58:49;;;;;;;3.63;2.35;;;;;;;15.74;49.31;96573.66;10352101;28;97307;-73
2022/07/17 04:03:52;;;;;;;2.60;1.73;;;;;;;15.79;49.34;96581.03;10355431;28;99186;-73
2022/07/17 04:08:56;;;;;;;4.07;1.63;;;;;;;15.74;49.76;96586.81;10350141;28;97572;-73
2022/07/17 04:13:59;;;;;;;3.47;1.83;;;;;;;15.64;49.31;96594.91;10341520;28;97083;-73
2022/07/17 04:19:02;;;;;;;3.55;2.10;;;;;;;15.63;50.46;96592.44;10351186;28;99088;-72
2022/07/17 04:24:06;;;;;;;3.85;2.10;;;;;;;15.56;50.37;96588.81;10346095;28;96809;-73
2022/07/17 04:29:09;;;;;;;6.07;2.42;;;;;;;15.46;50.79;96595.13;10330874;28;97391;-72
2022/07/17 04:34:12;;;;;;;4.22;1.92;;;;;;;15.41;50.79;96588.69;10349210;28;97087;-72
2022/07/17 04:39:16;;;;;;;3.65;1.90;;;;;;;15.49;51.41;96586.06;10335624;28;97359;-72
2022/07/17 04:44:19;;;;;;;3.30;2.13;;;;;;;15.56;51.57;96588.81;10329827;28;96817;-73
2022/07/17 04:49:22;;;;;;;2.08;1.70;;;;;;;15.62;51.03;96582.94;10324238;28;96887;-72
2022/07/17 04:54:26;;;;;;;2.30;1.88;;;;;;;15.66;51.03;96581.56;10337656;28;99526;-72
2022/07/17 04:59:29;;;;;;;3.90;2.00;;;;;;;15.68;51.10;96590.94;10324787;28;97137;-73
2022/07/17 05:04:32;;;;;;;1.90;1.63;;;;;;;15.76;51.16;96590.09;10331314;28;96908;-72
2022/07/17 05:09:36;;;;;;;3.72;2.03;;;;;;;15.95;51.63;96590.69;10330589;28;97002;-72
2022/07/17 05:14:39;;;;;;;2.95;1.98;;;;;;;16.12;51.25;96581.69;10332649;28;96975;-72
2022/07/17 05:19:42;;;;;;;3.75;1.90;;;;;;;16.27;50.87;96581.75;10318861;28;97080;-72
2022/07/17 05:24:47;;;;;;;4.10;2.08;;;;;;;16.43;50.43;96575.53;10315685;28;97232;-72
2022/07/17 05:29:50;;;;;;;4.93;2.05;;;;;;;16.55;49.92;96581.22;10328143;28;96850;-72
2022/07/17 05:34:52;;;;;;;5.07;2.03;;;;;;;16.66;49.85;96586.09;10337967;28;97414;-72
2022/07/17 05:39:57;;;;;;;3.92;1.90;;;;;;;16.77;48.59;96595.41;10336488;28;96854;-72
2022/07/17 05:45:00;;;;;;;3.58;1.77;;;;;;;16.84;49.14;96598.16;10339348;28;96708;-72
2022/07/17 05:50:02;;;;;;;4.25;2.03;;;;;;;16.93;49.66;96595.25;10342917;28;96955;-72
2022/07/17 05:55:09;;;;;;;4.13;2.15;;;;;;;17.14;49.51;96602.53;10341960;28;97143;-72
2022/07/17 06:00:12;;;;;;;3.35;2.00;;;;;;;17.24;49.73;96612.81;10341519;28;96919;-72
2022/07/17 06:05:15;;;;;;;3.35;1.90;;;;;;;17.41;50.00;96613.47;10342368;28;98925;-72
2022/07/17 06:10:24;;;;;;;2.95;1.98;;;;;;;17.72;50.16;96592.13;10341715;28;96791;-72
2022/07/17 06:15:28;;;;;;;3.70;2.00;;;;;;;18.12;50.04;96597.91;10341841;28;97117;-72
2022/07/17 06:20:31;;;;;;;5.82;2.10;;;;;;;18.50;49.09;96599.53;10325151;28;96797;-72
2022/07/17 06:25:35;;;;;;;4.25;1.90;;;;;;;18.72;49.23;96594.25;10318338;28;97925;-72
2022/07/17 06:30:38;;;;;;;2.45;1.52;;;;;;;18.88;48.81;96600.13;10326260;28;97415;-72
2022/07/17 06:35:41;;;;;;;4.25;1.98;;;;;;;18.97;48.68;96602.63;10337730;28;96750;-72
2022/07/17 06:40:49;;;;;;;3.33;1.67;;;;;;;19.14;47.77;96604.00;10334532;28;96893;-72
2022/07/17 06:45:54;;;;;;;6.43;2.40;;;;;;;19.37;47.13;96608.22;10340372;28;98305;-73
2022/07/17 06:50:57;;;;;;;2.53;1.70;;;;;;;19.49;47.37;96605.81;10331180;28;97248;-73
2022/07/17 06:56:01;;;;;;;6.68;1.80;;;;;;;19.58;46.90;96605.47;10340365;28;96974;-73
2022/07/17 07:01:04;;;;;;;2.80;1.55;;;;;;;19.72;46.29;96616.16;10340357;28;96779;-73
2022/07/17 07:06:07;;;;;;;2.72;1.70;;;;;;;19.81;47.07;96620.28;10330413;28;97003;-72
2022/07/17 07:11:11;;;;;;;2.60;1.88;;;;;;;20.04;46.71;96620.00;10340474;28;98780;-73
2022/07/17 07:16:14;;;;;;;4.07;1.73;;;;;;;20.23;46.18;96617.63;10339654;28;97037;-73
2022/07/17 07:21:17;;;;;;;4.40;1.75;;;;;;;20.37;45.02;96612.16;10331134;28;96909;-73
2022/07/17 07:26:22;;;;;;;4.05;1.60;;;;;;;20.48;44.98;96625.88;10340236;28;96814;-73
2022/07/17 07:31:25;;;;;;;2.55;1.40;;;;;;;20.54;44.69;96619.75;10328656;28;96924;-73
2022/07/17 07:36:28;;;;;;;2.17;1.83;;;;;;;20.63;44.11;96623.03;10326262;28;97205;-73
2022/07/17 07:41:33;;;;;;;2.20;1.40;;;;;;;20.78;43.67;96626.34;10338776;28;97007;-72
2022/07/17 07:46:36;;;;;;;3.17;2.13;;;;;;;20.89;43.91;96622.25;10331209;28;97162;-72
2022/07/17 07:51:39;;;;;;;3.70;1.90;;;;;;;21.02;44.07;96619.63;10333614;28;96932;-73
2022/07/17 07:57:04;;;;;;;5.03;1.60;;;;;;;21.19;43.28;96621.84;10337839;28;100820;-73
2022/07/17 08:02:07;;;;;;;3.33;1.70;;;;;;;21.24;43.65;96616.75;10325415;28;97285;-73
2022/07/17 08:07:10;;;;;;;3.20;2.03;;;;;;;21.36;42.99;96625.72;10303653;28;97314;-73
2022/07/17 08:12:17;;;;;;;2.97;1.70;;;;;;;21.47;43.02;96635.72;10302016;28;97053;-73
2022/07/17 08:17:40;;;;;;;2.10;1.52;;;;;;;21.64;42.85;96645.94;10307337;28;98909;-73
2022/07/17 08:22:44;;;;;;;4.85;2.05;;;;;;;21.72;42.79;96635.09;10307083;28;98299;-73
2022/07/17 08:28:08;;;;;;;4.90;1.77;;;;;;;21.79;42.71;96643.06;10305258;28;96826;-73
2022/07/17 08:33:10;;;;;;;;;;;;;;;21.90;42.43;96622.97;10301441;28;101421;-73
2022/07/17 08:38:13;;;;;;;4.35;1.80;;;;;;;22.01;42.00;96632.97;10304165;28;97923;-73
2022/07/17 08:43:18;;;;;;;5.10;1.95;;;;;;;22.04;41.95;96633.38;10300715;28;96839;-73
2022/07/17 08:48:21;;;;;;;5.53;1.60;;;;;;;22.17;41.22;96631.69;10301804;28;96877;-73
2022/07/17 08:53:26;;;;;;;3.40;1.80;;;;;;;22.25;41.13;96637.56;10308060;28;98743;-73
2022/07/17 08:58:31;;;;;;;2.38;1.80;;;;;;;22.40;41.12;96644.47;10331498;28;97598;-73
2022/07/17 09:03:36;;;;;;;3.15;1.98;;;;;;;22.51;40.46;96641.16;10321565;28;96819;-73
2022/07/17 09:08:46;;;;;;;3.78;1.80;;;;;;;22.65;40.18;96635.75;10333591;28;96834;-73
2022/07/17 09:13:54;;;;;;;3.10;1.70;;;;;;;22.71;40.23;96630.38;10333756;28;98278;-73
2022/07/17 09:18:59;;;;;;;3.60;1.77;;;;;;;22.94;39.89;96639.66;10325726;28;97516;-73
2022/07/17 09:24:06;;;;;;;4.88;1.95;;;;;;;23.03;39.36;96643.69;10327652;28;96867;-73
2022/07/17 09:29:11;;;;;;;3.10;1.80;;;;;;;23.13;39.45;96632.53;10330969;28;96997;-73
2022/07/17 09:34:17;;;;;;;3.92;1.95;;;;;;;23.30;38.83;96640.84;10333754;28;97208;-73
2022/07/17 09:39:21;;;;;;;4.00;1.90;;;;;;;23.44;39.05;96641.53;10327442;28;96824;-73
2022/07/17 09:44:25;;;;;;;4.93;2.10;;;;;;;23.56;38.87;96637.09;10334340;28;97014;-73
2022/07/17 09:49:29;;;;;;;2.55;1.70;;;;;;;23.72;38.57;96636.53;10334352;28;97145;-73
2022/07/17 09:54:33;;;;;;;3.08;1.85;;;;;;;23.89;37.98;96641.28;10331161;28;97231;-73
2022/07/17 09:59:38;;;;;;;4.65;2.08;;;;;;;23.99;38.03;96638.09;10333188;28;97124;-73
2022/07/17 10:04:41;;;;;;;4.22;2.05;;;;;;;24.09;37.61;96636.56;10330136;28;96944;-74
2022/07/17 10:09:45;;;;;;;4.33;2.47;;;;;;;24.20;37.62;96635.00;10327288;28;99236;-73
2022/07/17 10:14:50;;;;;;;2.53;1.98;;;;;;;24.31;37.55;96625.41;10333613;28;98172;-74
2022/07/17 10:19:56;;;;;;;2.92;1.83;;;;;;;24.52;37.31;96631.28;10332173;28;97790;-73
2022/07/17 10:25:05;;;;;;;2.80;1.98;;;;;;;24.47;37.44;96624.78;10330868;28;97526;-73
2022/07/17 10:30:13;;;;;;;3.50;2.00;;;;;;;24.52;37.65;96623.28;10334033;28;96942;-73
2022/07/17 10:35:16;;;;;;;4.25;1.88;;;;;;;24.70;37.72;96636.59;10338081;28;99247;-73
2022/07/17 10:40:28;;;;;;;2.88;2.08;;;;;;;24.95;37.38;96630.28;10340249;28;97098;-73
2022/07/17 10:45:35;;;;;;;3.72;2.33;;;;;;;24.97;37.15;96625.53;10335739;28;96910;-73
2022/07/17 10:50:40;;;;;;;3.00;2.33;;;;;;;25.16;37.15;96624.38;10339740;28;96932;-73
2022/07/17 10:55:45;;;;;;;3.40;2.35;;;;;;;25.47;36.13;96629.66;10340021;28;96739;-73
2022/07/17 11:01:05;;;;;;;3.47;2.30;;;;;;;25.57;36.41;96633.38;10338982;28;97930;-73
2022/07/17 11:06:15;;;;;;;5.45;2.28;;;;;;;25.60;36.58;96635.59;10338922;28;97355;-73
2022/07/17 11:11:19;;;;;;;3.85;2.40;;;;;;;25.78;35.98;96636.53;10320979;28;98911;-73
2022/07/17 11:16:33;;;;;;;5.43;2.65;;;;;;;25.96;35.92;96633.72;10317275;28;97791;-73
2022/07/17 11:21:45;;;;;;;5.60;3.38;;;;;;;26.25;35.07;96631.09;10322978;28;97091;-73
2022/07/17 11:26:51;;;;;;;3.78;2.47;;;;;;;26.27;35.06;96622.81;10326296;28;97488;-73
2022/07/17 11:31:58;;;;;;;5.53;2.42;;;;;;;26.45;34.76;96640.56;10338388;28;97036;-73
2022/07/17 11:37:02;;;;;;;5.30;2.42;;;;;;;26.60;34.87;96622.09;10334500;28;97129;-73
2022/07/17 11:42:08;;;;;;;3.38;2.40;;;;;;;26.78;33.98;96628.28;10339259;28;96942;-73
2022/07/17 11:47:20;;;;;;;4.30;2.40;;;;;;;26.75;33.74;96625.03;10336011;28;97096;-73
2022/07/17 11:52:23;;;;;;;3.53;2.08;;;;;;;26.96;33.77;96620.06;10336872;28;97147;-73
2022/07/17 11:57:43;;;;;;;3.40;2.50;;;;;;;27.20;32.94;96619.94;10335182;28;97100;-73
2022/07/17 12:02:48;;;;;;;5.22;2.38;;;;;;;27.45;32.93;96616.81;10318968;28;97611;-73
2022/07/17 12:07:51;;;;;;;4.68;2.58;;;;;;;27.58;32.64;96610.25;10327916;28;98166;-73
2022/07/17 12:12:57;;;;;;;5.07;2.57;;;;;;;27.47;33.16;96604.78;10334306;28;96904;-73
2022/07/17 12:18:01;;;;;;;4.22;2.40;;;;;;;27.75;32.52;96605.72;10321286;28;97048;-73
2022/07/17 12:23:04;;;;;;;3.33;2.38;;;;;;;27.86;32.39;96612.84;10313797;28;97947;-73
2022/07/17 12:28:07;;;;;;;4.63;2.33;;;;;;;27.97;32.44;96607.59;10320040;28;96826;-73
2022/07/17 12:33:11;;;;;;;4.10;2.00;;;;;;;28.23;31.77;96606.81;10323465;28;97014;-73
2022/07/17 12:38:14;;;;;;;3.00;2.47;;;;;;;28.37;31.72;96604.59;10322433;28;96880;-73
2022/07/17 12:43:18;;;;;;;4.18;2.20;;;;;;;28.39;31.95;96601.66;10329375;28;97021;-73
2022/07/17 12:48:22;;;;;;;7.30;2.63;;;;;;;28.50;31.77;96600.72;10328277;28;97950;-73
2022/07/17 12:53:25;;;;;;;4.10;2.30;;;;;;;28.64;31.18;96605.66;10336292;28;96917;-74
2022/07/17 12:58:28;;;;;;;4.28;2.47;;;;;;;28.68;31.08;96601.41;10304698;28;97466;-73
2022/07/17 13:03:33;;;;;;;2.80;2.33;;;;;;;28.76;30.81;96592.91;10305698;28;97248;-73
2022/07/17 13:08:36;;;;;;;4.95;2.33;;;;;;;28.90;30.67;96587.91;10336167;28;97115;-73
2022/07/17 13:13:40;;;;;;;4.78;2.40;;;;;;;29.22;30.37;96595.97;10321207;28;96865;-73
2022/07/17 13:18:47;;;;;;;4.32;2.60;;;;;;;29.41;29.98;96587.50;10316911;28;96955;-73
2022/07/17 13:23:50;;;;;;;3.53;2.35;;;;;;;29.14;30.20;96588.38;10329547;28;98005;-73
2022/07/17 13:28:53;;;;;;;2.80;2.17;;;;;;;29.33;30.25;96586.91;10328534;28;101930;-73
2022/07/17 13:33:59;;;;;;;4.20;2.40;;;;;;;29.68;29.36;96582.84;10333193;28;97089;-73
2022/07/17 13:39:04;;;;;;;3.67;2.10;;;;;;;30.15;28.75;96564.13;10327427;28;96661;-73
2022/07/17 13:44:08;;;;;;;2.85;2.25;;;;;;;30.33;28.59;96573.66;10335422;28;97162;-74
2022/07/17 13:49:12;;;;;;;3.55;2.20;;;;;;;30.41;28.67;96555.09;10335047;28;96881;-73
2022/07/17 13:54:15;;;;;;;3.05;2.38;;;;;;;30.59;28.22;96553.75;10332115;28;96951;-74
2022/07/17 13:59:18;;;;;;;4.20;2.20;;;;;;;31.17;27.26;96550.81;10328568;28;97353;-73
2022/07/17 14:04:22;;;;;;;3.63;2.20;;;;;;;31.37;26.81;96547.28;10324979;28;96951;-74
2022/07/17 14:09:25;;;;;;;3.92;2.45;;;;;;;31.37;26.57;96546.50;10334170;28;97290;-74
2022/07/17 14:14:28;;;;;;;3.95;2.20;;;;;;;31.97;25.78;96542.00;10330444;28;97022;-74
2022/07/17 14:19:33;;;;;;;6.30;2.67;;;;;;;32.95;24.90;96540.56;10334398;28;98037;-74
2022/07/17 14:24:44;;;;;;;3.78;2.20;;;;;;;34.05;24.03;96545.38;10328641;28;96809;-74
2022/07/17 14:29:47;;;;;;;2.88;1.90;;;;;;;35.27;22.56;96539.19;10336773;28;96986;-74
2022/07/17 14:34:51;;;;;;;2.80;2.00;;;;;;;37.16;20.92;96536.19;10335564;28;97108;-75
2022/07/17 14:39:54;;;;;;;2.60;1.67;;;;;;;39.22;18.72;96536.44;10328409;28;97014;-74
2022/07/17 14:44:57;;;;;;;3.40;1.95;;;;;;;40.30;17.31;96535.25;10337885;28;96893;-75
2022/07/17 14:50:02;;;;;;;2.03;1.70;;;;;;;41.58;16.43;96540.97;10334702;28;97416;-74
2022/07/17 14:55:07;;;;;;;2.60;1.63;;;;;;;41.91;15.77;96542.03;10331546;28;96983;-74
2022/07/17 15:00:10;;;;;;;1.50;1.40;;;;;;;42.73;15.44;96539.00;10328148;28;100379;-75
2022/07/17 15:05:16;;;;;;;2.15;1.70;;;;;;;42.32;15.26;96526.44;10333856;28;96897;-75
2022/07/17 15:10:20;;;;;;;2.38;1.63;;;;;;;42.35;15.23;96520.25;10329242;28;96858;-75
2022/07/17 15:15:22;;;;;;;1.88;1.50;;;;;;;42.88;14.49;96525.69;10324287;28;97278;-76
2022/07/17 15:20:27;;;;;;;3.35;1.80;;;;;;;43.30;14.16;96522.47;10323063;28;100044;-75
2022/07/17 15:25:30;;;;;;;1.55;1.45;;;;;;;43.48;13.72;96515.47;10331064;28;96850;-75
2022/07/17 15:30:34;;;;;;;2.08;1.70;;;;;;;42.90;14.20;96510.44;10325671;28;96813;-75
2022/07/17 15:35:39;;;;;;;1.75;1.60;;;;;;;42.81;13.95;96507.06;10316845;28;97003;-75
2022/07/17 15:40:42;;;;;;;2.10;1.60;;;;;;;42.73;13.88;96500.56;10328579;28;97407;-76
2022/07/17 15:45:45;;;;;;;2.92;1.73;;;;;;;43.31;13.08;96502.09;10329736;28;97330;-74
2022/07/17 15:50:49;;;;;;;2.63;1.60;;;;;;;43.23;12.78;96500.31;10325572;28;97720;-74
2022/07/17 15:55:52;;;;;;;3.85;1.67;;;;;;;43.88;12.51;96497.13;10336455;28;100395;-75
2022/07/17 16:00:55;;;;;;;3.10;1.67;;;;;;;44.21;12.39;96504.16;10332084;28;96842;-75
2022/07/17 16:05:59;;;;;;;1.58;1.40;;;;;;;44.78;11.95;96494.34;10329903;28;97235;-75
2022/07/17 16:11:02;;;;;;;2.50;1.52;;;;;;;45.43;12.36;96503.78;10332757;28;96907;-75
2022/07/17 16:16:07;;;;;;;1.63;1.50;;;;;;;44.50;13.08;96491.81;10325944;28;97915;-75
2022/07/17 16:21:12;;;;;;;2.33;1.35;;;;;;;43.92;12.91;96495.31;10333711;28;97109;-75
2022/07/17 16:26:15;;;;;;;3.47;1.60;;;;;;;44.57;12.51;96489.19;10329775;28;96838;-75
2022/07/17 16:31:18;;;;;;;1.40;1.30;;;;;;;44.83;12.77;96484.19;10326395;28;96905;-75
2022/07/17 16:36:22;;;;;;;1.60;1.50;;;;;;;44.17;12.79;96481.28;10324780;28;97014;-75
2022/07/17 16:41:25;;;;;;;2.28;1.70;;;;;;;43.62;13.29;96478.47;10323243;28;97178;-75
2022/07/17 16:46:28;;;;;;;1.65;1.30;;;;;;;43.98;13.14;96484.81;10325825;28;97876;-75
2022/07/17 16:51:33;;;;;;;2.00;1.33;;;;;;;44.60;12.96;96487.69;10330440;28;97439;-75
2022/07/17 16:56:36;;;;;;;1.48;1.35;;;;;;;44.30;13.31;96487.44;10320371;28;97119;-75
2022/07/17 17:01:41;;;;;;;2.72;1.55;;;;;;;44.61;13.32;96487.31;10330591;28;98266;-75
2022/07/17 17:06:52;;;;;;;3.40;1.57;;;;;;;44.12;13.22;96484.31;10334143;28;97438;-75
2022/07/17 17:11:55;;;;;;;1.50;1.40;;;;;;;44.23;12.97;96475.13;10334077;28;97920;-75
2022/07/17 17:16:58;;;;;;;1.30;1.20;;;;;;;44.50;12.65;96472.53;10324334;28;97833;-75
2022/07/17 17:22:02;;;;;;;2.65;1.60;;;;;;;43.76;13.22;96478.81;10327490;28;97094;-75
2022/07/17 17:27:05;;;;;;;4.47;3.20;;;;;;;43.96;13.00;96476.13;10323292;28;96963;-75
2022/07/17 17:32:08;;;;;;;2.17;1.80;;;;;;;44.26;13.29;96473.59;10321575;28;97028;-75
2022/07/17 17:37:13;;;;;;;1.92;1.40;;;;;;;43.80;13.91;96482.44;10309663;28;96897;-74
2022/07/17 17:42:16;;;;;;;3.13;1.42;;;;;;;43.66;13.62;96480.16;10302777;28;96944;-75
2022/07/17 17:47:25;;;;;;;2.00;1.27;;;;;;;43.39;13.63;96487.34;10301153;28;96875;-75
2022/07/17 17:52:29;;;;;;;2.17;1.30;;;;;;;42.99;13.84;96501.22;10306478;28;97051;-74
2022/07/17 17:57:32;;;;;;;1.75;1.40;;;;;;;42.97;13.95;96496.88;10303468;28;96794;-75
2022/07/17 18:02:35;;;;;;;1.60;1.50;;;;;;;42.93;14.02;96503.44;10306152;28;97251;-74
2022/07/17 18:07:40;;;;;;;2.80;1.50;;;;;;;41.95;15.00;96510.81;10311287;28;99505;-74
2022/07/17 18:12:43;;;;;;;2.55;1.63;;;;;;;40.29;15.80;96503.56;10305835;28;98043;-75
2022/07/17 18:17:47;;;;;;;1.77;1.48;;;;;;;37.60;18.30;96518.16;10308065;28;97090;-76
2022/07/17 18:22:52;;;;;;;2.45;1.85;;;;;;;35.78;19.90;96513.00;10300174;28;97441;-75
2022/07/17 18:27:56;;;;;;;2.40;1.70;;;;;;;34.52;20.82;96517.34;10302055;28;96838;-75
2022/07/17 18:32:59;;;;;;;4.80;1.80;;;;;;;33.43;21.82;96514.38;10306061;28;98710;-75
2022/07/17 18:38:04;;;;;;;3.92;1.88;;;;;;;32.40;22.56;96519.03;10314238;28;96870;-74
2022/07/17 18:43:07;;;;;;;4.07;1.90;;;;;;;31.60;23.70;96524.25;10313507;28;97109;-76
2022/07/17 18:48:10;;;;;;;;;;;;;;;31.16;23.46;96530.31;10304268;28;98172;-76
2022/07/17 18:53:16;;;;;;;3.93;1.80;;;;;;;30.57;24.36;96538.94;10309331;28;96981;-76
2022/07/17 18:58:19;;;;;;;3.75;2.20;;;;;;;30.14;25.10;96532.91;10313575;28;96970;-76
2022/07/17 19:03:22;;;;;;;2.13;1.65;;;;;;;29.75;25.52;96544.91;10307420;28;96976;-78
2022/07/17 19:08:27;;;;;;;3.00;1.70;;;;;;;29.35;26.10;96533.63;10308456;28;96899;-76
2022/07/17 19:13:30;;;;;;;4.15;2.28;;;;;;;28.91;26.70;96536.56;10312869;28;97281;-76
2022/07/17 19:18:33;;;;;;;4.25;1.98;;;;;;;28.44;27.55;96542.59;10307012;28;96977;-73
2022/07/17 19:23:37;;;;;;;3.53;2.00;;;;;;;28.18;27.94;96545.00;10308908;28;97292;-72
2022/07/17 19:28:41;;;;;;;2.55;2.05;;;;;;;28.05;27.84;96545.41;10327473;28;97400;-72
2022/07/17 19:33:44;;;;;;;4.10;2.40;;;;;;;27.79;29.47;96547.78;10323034;28;101424;-73
2022/07/17 19:38:48;;;;;;;4.33;2.30;;;;;;;27.71;29.35;96547.41;10330390;28;97106;-73
2022/07/17 19:43:51;;;;;;;3.47;2.10;;;;;;;27.48;29.71;96558.09;10316135;28;97138;-73
2022/07/17 19:48:54;;;;;;;4.87;2.10;;;;;;;27.33;30.47;96554.38;10311060;28;97640;-74
2022/07/17 19:53:59;;;;;;;1.88;1.73;;;;;;;27.22;30.24;96564.16;10323498;28;96975;-74
2022/07/17 19:59:02;;;;;;;4.70;2.15;;;;;;;27.09;30.03;96565.28;10329052;28;96949;-74
2022/07/17 20:04:08;;;;;;;3.25;2.05;;;;;;;26.98;30.12;96576.94;10328127;28;98396;-74
2022/07/17 20:09:12;;;;;;;3.30;2.03;;;;;;;26.82;30.57;96581.22;10326528;28;97237;-74
2022/07/17 20:14:15;;;;;;;4.90;2.13;;;;;;;26.69;30.85;96583.16;10319331;28;96894;-74
2022/07/17 20:19:18;;;;;;;3.30;1.87;;;;;;;26.65;30.52;96597.25;10320989;28;97735;-74
2022/07/17 20:24:22;;;;;;;5.17;2.20;;;;;;;26.57;31.06;96590.41;10324373;28;96915;-74
2022/07/17 20:29:26;;;;;;;2.55;2.05;;;;;;;26.48;31.42;96592.66;10317717;28;100445;-75
2022/07/17 20:34:28;;;;;;;3.57;2.77;;;;;;;26.35;31.49;96592.97;10326694;28;99538;-74
2022/07/17 20:39:33;;;;;;;3.60;1.83;;;;;;;26.19;31.69;96595.34;10329879;28;100414;-74
2022/07/17 20:44:36;;;;;;;3.60;1.90;;;;;;;26.12;31.79;96593.84;10314378;28;96879;-74
2022/07/17 20:49:39;;;;;;;3.00;2.13;;;;;;;26.08;32.04;96603.41;10320216;28;97477;-75
2022/07/17 20:54:46;;;;;;;5.57;2.20;;;;;;;26.02;31.94;96599.00;10324751;28;97243;-76
2022/07/17 20:59:48;;;;;;;3.47;1.92;;;;;;;25.94;32.72;96598.31;10306351;28;97294;-74
2022/07/17 21:04:51;;;;;;;3.65;1.83;;;;;;;25.86;32.23;96606.72;10314961;28;96844;-75
2022/07/17 21:09:56;;;;;;;3.40;2.00;;;;;;;25.81;32.31;96606.63;10329586;28;97416;-74
2022/07/17 21:14:59;;;;;;;2.67;1.90;;;;;;;25.69;32.67;96605.81;10332974;28;97009;-74
2022/07/17 21:20:02;;;;;;;4.82;2.08;;;;;;;25.62;33.08;96606.75;10328230;28;99966;-74
2022/07/17 21:25:09;;;;;;;3.70;2.33;;;;;;;25.58;33.07;96610.13;10327094;28;97258;-74
2022/07/17 21:30:12;;;;;;;5.35;2.10;;;;;;;25.53;32.85;96612.66;10324947;28;97618;-74
2022/07/17 21:35:15;;;;;;;3.73;2.07;;;;;;;25.44;32.46;96613.03;10329068;28;97109;-74
2022/07/17 21:40:20;;;;;;;2.83;1.90;;;;;;;25.38;32.67;96613.13;10323658;28;101149;-74
2022/07/17 21:45:23;;;;;;;3.70;2.25;;;;;;;25.28;33.20;96610.22;10329588;28;97253;-74
2022/07/17 21:50:26;;;;;;;3.30;2.05;;;;;;;25.18;33.26;96616.97;10327737;28;97248;-74
2022/07/17 21:55:30;;;;;;;2.78;2.10;;;;;;;25.13;33.34;96618.69;10326022;28;97245;-74
2022/07/17 22:00:34;;;;;;;5.05;2.38;;;;;;;25.02;33.41;96625.66;10307382;28;98086;-74
2022/07/17 22:05:38;;;;;;;2.95;2.08;;;;;;;24.98;33.55;96624.50;10302876;28;97339;-74
2022/07/17 22:10:43;;;;;;;2.97;1.80;;;;;;;24.91;33.61;96615.78;10305551;28;97402;-74
2022/07/17 22:15:46;;;;;;;3.08;2.10;;;;;;;24.83;33.69;96625.72;10303046;28;97187;-74
2022/07/17 22:20:49;;;;;;;2.53;1.55;;;;;;;24.74;33.74;96621.72;10310911;28;97708;-74
2022/07/17 22:25:55;;;;;;;3.40;1.80;;;;;;;24.67;33.90;96629.03;10312975;28;101397;-74
2022/07/17 22:30:58;;;;;;;2.60;2.10;;;;;;;24.49;34.07;96624.56;10327194;28;98764;-75
2022/07/17 22:36:01;;;;;;;2.90;1.93;;;;;;;24.36;34.47;96622.88;10310112;28;96833;-74
2022/07/17 22:41:05;;;;;;;2.80;2.00;;;;;;;24.18;34.60;96633.59;10324238;28;96885;-74
2022/07/17 22:46:08;;;;;;;3.45;2.05;;;;;;;23.90;34.86;96635.72;10314050;28;99485;-74
2022/07/17 22:51:13;;;;;;;3.43;2.13;;;;;;;23.65;34.75;96630.44;10309919;28;97653;-74
2022/07/17 22:56:17;;;;;;;3.15;2.00;;;;;;;23.45;35.90;96630.66;10306415;28;97032;-74
2022/07/17 23:01:20;;;;;;;3.20;1.90;;;;;;;23.19;36.80;96637.00;10321858;28;96964;-74
2022/07/17 23:06:24;;;;;;;3.80;2.60;;;;;;;22.98;37.79;96632.88;10321546;28;98555;-74
2022/07/17 23:11:28;;;;;;;3.43;2.10;;;;;;;22.79;38.38;96631.97;10325992;28;96854;-75
2022/07/17 23:16:31;;;;;;;2.70;2.10;;;;;;;22.50;39.33;96626.22;10327178;28;97182;-74
2022/07/17 23:21:35;;;;;;;3.30;2.33;;;;;;;22.28;40.23;96630.19;10323866;28;97847;-75
2022/07/17 23:26:39;;;;;;;3.25;1.98;;;;;;;22.10;40.49;96634.38;10325381;28;97269;-74
2022/07/17 23:31:42;;;;;;;;;;;;;;;21.78;39.86;96642.25;10337629;28;96875;-74
2022/07/17 23:36:45;;;;;;;3.53;1.88;;;;;;;21.48;41.27;96642.69;10330307;28;97186;-74